Time;durP1;ratioP1;P1;durP2;ratioP2;P2;SDS_P1;SDS_P2;PMS_P1;PMS_P2;Temp;Humidity;BMP_temperature;BMP_pressure;BME280_temperature;BME280_humidity;BME280_pressure;Samples;Min_cycle;Max_cycle;Signal;HPM_P1;HPM_P2
2023/04/06 00:00:31;;;;;;;22.42;12.50;;;9.00;99.90;;;;;;5033147;28;20022;-51
2023/04/06 00:02:56;;;;;;;16.85;11.23;;;9.10;99.90;;;;;;5033235;28;20397;-49
2023/04/06 00:05:22;;;;;;;17.95;11.40;;;9.00;99.90;;;;;;5033180;28;20257;-52
2023/04/06 00:07:49;;;;;;;19.33;11.55;;;9.10;99.90;;;;;;5033307;28;20099;-50
2023/04/06 00:10:15;;;;;;;18.88;11.85;;;9.10;99.90;;;;;;5031564;28;20388;-49
2023/04/06 00:12:41;;;;;;;19.15;11.88;;;9.00;99.90;;;;;;5032950;28;20119;-53
2023/04/06 00:15:07;;;;;;;19.13;11.88;;;9.10;99.90;;;;;;5032985;28;20090;-52
2023/04/06 00:17:33;;;;;;;18.38;11.60;;;9.10;99.90;;;;;;5033056;28;20103;-49
2023/04/06 00:19:58;;;;;;;18.65;12.23;;;9.10;99.90;;;;;;5033213;28;20476;-53
2023/04/06 00:22:24;;;;;;;17.88;11.90;;;9.10;99.90;;;;;;5032814;28;20450;-51
2023/04/06 00:24:49;;;;;;;20.33;12.82;;;9.10;99.90;;;;;;5033001;28;20112;-49
2023/04/06 00:27:15;;;;;;;19.05;11.73;;;9.10;99.90;;;;;;5032630;28;20472;-50
2023/04/06 00:29:41;;;;;;;15.38;10.48;;;9.10;99.90;;;;;;5031696;28;20022;-49
2023/04/06 00:32:06;;;;;;;18.95;11.00;;;9.10;99.90;;;;;;5032914;28;20025;-50
2023/04/06 00:34:32;;;;;;;17.00;10.68;;;9.10;99.90;;;;;;5032593;28;20028;-55
2023/04/06 00:36:57;;;;;;;15.90;10.20;;;9.10;99.90;;;;;;5032781;28;20025;-54
2023/04/06 00:39:23;;;;;;;16.10;9.55;;;9.10;99.90;;;;;;5031228;28;20045;-52
2023/04/06 00:41:52;;;;;;;14.52;9.25;;;9.10;99.90;;;;;;5032444;28;20106;-53
2023/04/06 00:44:18;;;;;;;15.73;8.90;;;9.10;99.90;;;;;;5032726;28;20029;-55
2023/04/06 00:46:44;;;;;;;13.50;8.65;;;9.10;99.90;;;;;;5032381;28;20022;-52
2023/04/06 00:49:10;;;;;;;14.93;8.93;;;9.10;99.90;;;;;;5032390;28;20155;-49
2023/04/06 00:51:36;;;;;;;12.95;8.43;;;9.10;99.90;;;;;;5032292;28;20071;-50
2023/04/06 00:54:01;;;;;;;12.98;7.97;;;9.10;99.90;;;;;;5032371;28;20057;-49
2023/04/06 00:56:27;;;;;;;12.85;7.65;;;9.10;99.90;;;;;;5032021;28;20388;-51
2023/04/06 00:58:53;;;;;;;12.15;8.48;;;9.10;99.90;;;;;;5032344;28;20396;-50
2023/04/06 01:01:19;;;;;;;12.98;8.43;;;9.10;99.90;;;;;;5032025;28;20033;-53
2023/04/06 01:03:48;;;;;;;13.02;8.02;;;9.10;99.90;;;;;;5030700;28;20041;-49
2023/04/06 01:06:14;;;;;;;;;;;9.10;99.90;;;;;;5032579;28;20025;-50
2023/04/06 01:08:40;;;;;;;11.02;6.70;;;9.10;99.90;;;;;;5031842;28;19951;-52
2023/04/06 01:11:05;;;;;;;12.20;6.95;;;9.10;99.90;;;;;;5031991;28;20025;-50
2023/04/06 01:13:31;;;;;;;13.18;7.72;;;9.10;99.90;;;;;;5031984;28;20443;-51
2023/04/06 01:15:57;;;;;;;11.13;7.57;;;9.10;99.90;;;;;;5030685;28;20116;-54
2023/04/06 01:18:29;;;;;;;10.85;7.63;;;9.10;99.90;;;;;;5030448;28;20121;-50
2023/04/06 01:20:55;;;;;;;13.98;8.27;;;9.10;99.90;;;;;;5031564;28;20036;-50
2023/04/06 01:23:21;;;;;;;11.15;7.55;;;9.10;99.90;;;;;;5031671;28;20018;-50
2023/04/06 01:25:46;;;;;;;10.50;6.60;;;9.00;99.90;;;;;;5031698;28;20028;-53
2023/04/06 01:28:12;;;;;;;12.60;6.90;;;9.10;99.90;;;;;;5031731;28;20030;-50
2023/04/06 01:30:38;;;;;;;8.77;5.75;;;9.10;99.90;;;;;;5031350;28;20029;-53
2023/04/06 01:33:03;;;;;;;10.57;5.72;;;9.00;99.90;;;;;;5031490;28;20044;-49
2023/04/06 01:35:30;;;;;;;11.52;6.10;;;9.00;99.90;;;;;;5031523;28;20030;-51
2023/04/06 01:37:56;;;;;;;11.35;6.18;;;9.10;99.90;;;;;;5031082;28;20107;-48
2023/04/06 01:40:21;;;;;;;8.32;5.47;;;9.00;99.90;;;;;;5029664;28;20473;-50
2023/04/06 01:42:47;;;;;;;9.18;5.38;;;9.00;99.90;;;;;;5031342;28;20044;-50
2023/04/06 01:45:13;;;;;;;7.03;4.53;;;9.00;99.90;;;;;;5031360;28;20017;-51
2023/04/06 01:47:38;;;;;;;7.63;5.25;;;9.00;99.90;;;;;;5031339;28;20484;-49
2023/04/06 01:50:06;;;;;;;10.88;6.13;;;9.00;99.90;;;;;;5031013;28;20022;-51
2023/04/06 01:52:32;;;;;;;8.98;5.18;;;9.10;99.90;;;;;;5029738;28;20120;-49
2023/04/06 01:54:58;;;;;;;8.82;5.20;;;9.10;99.90;;;;;;5027460;28;20040;-53
2023/04/06 01:57:25;;;;;;;9.00;5.10;;;9.10;99.90;;;;;;5031009;28;20021;-52
2023/04/06 01:59:51;;;;;;;9.70;4.55;;;9.00;99.90;;;;;;5027272;28;20488;-50
2023/04/06 02:02:16;;;;;;;7.35;4.65;;;9.00;99.90;;;;;;5029914;28;20044;-50
2023/04/06 02:04:42;;;;;;;7.22;4.65;;;9.10;99.90;;;;;;5030863;28;20028;-51
2023/04/06 02:07:08;;;;;;;7.43;4.57;;;9.10;99.90;;;;;;5030762;28;20031;-53
2023/04/06 02:09:33;;;;;;;8.23;4.82;;;9.00;99.90;;;;;;5030744;28;20362;-51
2023/04/06 02:12:00;;;;;;;11.13;5.30;;;9.10;99.90;;;;;;5030824;28;20033;-50
2023/04/06 02:14:26;;;;;;;10.95;5.50;;;9.10;99.90;;;;;;5030771;28;20100;-52
2023/04/06 02:16:51;;;;;;;10.30;4.72;;;9.00;99.90;;;;;;5030490;28;20165;-49
2023/04/06 02:19:17;;;;;;;9.75;5.43;;;9.00;99.90;;;;;;5030649;28;20021;-49
2023/04/06 02:21:43;;;;;;;15.85;6.47;;;9.00;99.90;;;;;;5030401;28;20453;-48
2023/04/06 02:24:08;;;;;;;8.38;5.57;;;9.00;99.90;;;;;;5030463;28;20104;-49
2023/04/06 02:26:34;;;;;;;8.88;5.63;;;9.00;99.90;;;;;;5030655;28;20029;-48
2023/04/06 02:29:01;;;;;;;9.80;5.40;;;9.00;99.90;;;;;;5030774;28;20030;-51
2023/04/06 02:31:26;;;;;;;8.63;5.30;;;9.00;99.90;;;;;;5030604;28;20021;-52
2023/04/06 02:33:52;;;;;;;10.95;5.90;;;9.00;99.90;;;;;;5030298;28;20021;-53
2023/04/06 02:36:17;;;;;;;11.98;6.25;;;9.00;99.90;;;;;;5030373;28;20388;-48
2023/04/06 02:38:43;;;;;;;13.07;6.28;;;9.00;99.90;;;;;;5030243;28;20124;-52
2023/04/06 02:41:09;;;;;;;10.57;5.93;;;9.00;99.90;;;;;;5030168;28;20484;-49
2023/04/06 02:43:34;;;;;;;12.23;6.25;;;9.00;99.90;;;;;;5030475;28;20050;-52
2023/04/06 02:46:00;;;;;;;9.75;5.90;;;9.00;99.90;;;;;;5030419;28;20022;-54
2023/04/06 02:48:26;;;;;;;12.30;5.97;;;9.00;99.90;;;;;;5030339;28;20014;-49
2023/04/06 02:50:51;;;;;;;9.48;6.10;;;9.10;99.90;;;;;;5030379;28;20033;-50
2023/04/06 02:53:17;;;;;;;9.77;5.25;;;9.10;99.90;;;;;;5031731;28;20100;-50
2023/04/06 02:55:42;;;;;;;14.05;6.68;;;9.10;99.90;;;;;;5034662;28;20029;-58
2023/04/06 02:58:08;;;;;;;9.38;5.75;;;9.10;99.90;;;;;;5034247;28;20508;-51
2023/04/06 03:00:34;;;;;;;9.52;5.80;;;9.10;99.90;;;;;;5034365;28;20057;-48
2023/04/06 03:03:00;;;;;;;11.90;5.63;;;9.10;99.90;;;;;;5034644;28;20051;-47
2023/04/06 03:05:26;;;;;;;9.43;5.93;;;9.00;99.90;;;;;;5034253;28;20447;-47
2023/04/06 03:07:51;;;;;;;8.85;5.97;;;9.10;99.90;;;;;;5033229;28;20083;-49
2023/04/06 03:10:17;;;;;;;10.93;5.88;;;9.10;99.90;;;;;;5034100;28;20427;-55
2023/04/06 03:12:42;;;;;;;9.80;5.10;;;9.10;99.90;;;;;;5032639;28;20021;-47
2023/04/06 03:15:09;;;;;;;9.27;4.90;;;9.10;99.90;;;;;;5033175;28;20029;-47
2023/04/06 03:17:35;;;;;;;9.02;5.13;;;9.10;99.90;;;;;;5033486;28;20421;-46
2023/04/06 03:20:00;;;;;;;8.07;5.00;;;9.10;99.90;;;;;;5033905;28;20112;-48
2023/04/06 03:22:26;;;;;;;8.73;4.35;;;9.10;99.90;;;;;;5033421;28;20056;-47
2023/04/06 03:24:51;;;;;;;8.80;4.25;;;9.10;99.90;;;;;;5033840;28;20095;-49
2023/04/06 03:27:17;;;;;;;7.28;4.55;;;9.10;99.90;;;;;;5033591;28;20040;-48
2023/04/06 03:29:43;;;;;;;7.57;4.60;;;9.10;99.90;;;;;;5033787;28;20024;-47
2023/04/06 03:32:10;;;;;;;7.60;4.50;;;9.10;99.90;;;;;;5033742;28;20112;-49
2023/04/06 03:34:35;;;;;;;8.48;4.95;;;9.10;99.90;;;;;;5032636;28;20018;-50
2023/04/06 03:37:01;;;;;;;11.98;5.10;;;9.10;99.90;;;;;;5033390;28;20033;-49
2023/04/06 03:39:26;;;;;;;9.20;5.18;;;9.10;99.90;;;;;;5032011;28;20053;-48
2023/04/06 03:41:52;;;;;;;11.20;4.63;;;9.10;99.90;;;;;;5033546;28;20094;-50
2023/04/06 03:44:18;;;;;;;7.75;4.53;;;9.10;99.90;;;;;;5033435;28;20033;-49
2023/04/06 03:46:44;;;;;;;10.73;5.25;;;9.10;99.90;;;;;;5033396;28;20025;-51
2023/04/06 03:49:09;;;;;;;9.98;4.90;;;9.10;99.90;;;;;;5033168;28;20253;-49
2023/04/06 03:51:35;;;;;;;9.55;4.88;;;9.10;99.90;;;;;;5033183;28;20362;-57
2023/04/06 03:54:00;;;;;;;12.65;5.65;;;9.20;99.90;;;;;;5033509;28;20105;-49
2023/04/06 03:56:26;;;;;;;9.25;5.20;;;9.10;99.90;;;;;;5033294;28;20495;-52
2023/04/06 03:58:52;;;;;;;9.32;4.95;;;9.20;99.90;;;;;;5033454;28;20485;-48
2023/04/06 04:01:18;;;;;;;10.13;5.07;;;9.20;99.90;;;;;;5032975;28;20037;-48
2023/04/06 04:03:44;;;;;;;9.57;4.45;;;9.20;99.90;;;;;;5032766;28;20021;-53
2023/04/06 04:06:09;;;;;;;9.45;4.82;;;9.20;99.90;;;;;;5032890;28;20029;-54
2023/04/06 04:08:35;;;;;;;7.03;4.40;;;9.20;99.90;;;;;;5033312;28;20087;-50
2023/04/06 04:11:01;;;;;;;6.85;4.22;;;9.20;99.90;;;;;;5033185;28;20076;-50
2023/04/06 04:13:27;;;;;;;6.47;4.28;;;9.20;99.90;;;;;;5032835;28;20029;-55
2023/04/06 04:15:52;;;;;;;8.40;4.53;;;9.20;99.90;;;;;;5032986;28;20021;-51
2023/04/06 04:18:18;;;;;;;8.63;5.15;;;9.20;99.90;;;;;;5032782;28;20459;-46
2023/04/06 04:20:44;;;;;;;10.63;5.78;;;9.20;99.90;;;;;;5032789;28;20465;-50
2023/04/06 04:23:10;;;;;;;9.73;5.90;;;9.30;99.90;;;;;;5031471;28;20025;-53
2023/04/06 04:25:36;;;;;;;11.82;7.07;;;9.30;99.90;;;;;;5032670;28;20372;-49
2023/04/06 04:28:02;;;;;;;12.10;7.60;;;9.30;99.90;;;;;;5032802;28;20037;-49
2023/04/06 04:30:28;;;;;;;11.85;7.43;;;9.30;99.90;;;;;;5031114;28;20516;-52
2023/04/06 04:32:53;;;;;;;15.52;7.40;;;9.30;99.90;;;;;;5032628;28;20112;-49
2023/04/06 04:35:19;;;;;;;14.18;7.78;;;9.30;99.90;;;;;;5032461;28;20029;-50
2023/04/06 04:37:45;;;;;;;9.93;7.30;;;9.30;99.90;;;;;;5032701;28;20033;-49
2023/04/06 04:40:11;;;;;;;9.48;6.05;;;9.30;99.90;;;;;;5032276;28;20523;-48
2023/04/06 04:42:37;;;;;;;13.18;6.43;;;9.30;99.90;;;;;;5032323;28;20033;-50
2023/04/06 04:45:02;;;;;;;12.52;5.90;;;9.30;99.90;;;;;;5032346;28;20036;-48
2023/04/06 04:47:28;;;;;;;10.70;5.82;;;9.30;99.90;;;;;;5032131;28;20021;-46
2023/04/06 04:49:54;;;;;;;12.05;6.00;;;9.40;99.90;;;;;;5032158;28;20031;-48
2023/04/06 04:52:19;;;;;;;11.02;6.68;;;9.30;99.90;;;;;;5032317;28;20033;-47
2023/04/06 04:54:46;;;;;;;13.70;5.70;;;9.40;99.90;;;;;;5032288;28;20434;-45
2023/04/06 04:57:12;;;;;;;10.13;5.60;;;9.40;99.90;;;;;;5032070;28;20072;-53
2023/04/06 04:59:38;;;;;;;10.77;6.53;;;9.40;99.90;;;;;;5032153;28;20021;-50
2023/04/06 05:02:03;;;;;;;11.27;6.07;;;9.40;99.90;;;;;;5031857;28;20045;-55
2023/04/06 05:04:29;;;;;;;9.75;6.03;;;9.40;99.90;;;;;;5031846;28;20059;-50
2023/04/06 05:07:08;;;;;;;12.70;6.65;;;9.40;99.90;;;;;;5032060;28;20104;-57
2023/04/06 05:09:34;;;;;;;13.15;7.38;;;9.50;99.90;;;;;;5031977;28;20025;-53
2023/04/06 05:12:00;;;;;;;14.00;7.50;;;9.40;99.90;;;;;;5032031;28;20048;-51
2023/04/06 05:14:26;;;;;;;14.10;7.70;;;9.50;99.90;;;;;;5031907;28;20021;-52
2023/04/06 05:16:52;;;;;;;13.63;7.05;;;9.50;99.90;;;;;;5031175;28;20017;-54
2023/04/06 05:19:18;;;;;;;16.00;8.38;;;9.50;99.90;;;;;;5031663;28;20033;-56
2023/04/06 05:21:44;;;;;;;14.15;7.47;;;9.50;99.90;;;;;;5031676;28;20033;-50
2023/04/06 05:24:10;;;;;;;14.10;8.70;;;9.50;99.90;;;;;;5031691;28;20025;-56
2023/04/06 05:26:35;;;;;;;14.43;8.38;;;9.50;99.90;;;;;;5031382;28;20025;-49
2023/04/06 05:29:01;;;;;;;16.00;8.52;;;9.60;99.90;;;;;;5031603;28;20022;-50
2023/04/06 05:31:27;;;;;;;18.52;9.30;;;9.50;99.90;;;;;;5031251;28;20036;-58
2023/04/06 05:33:53;;;;;;;17.05;9.57;;;9.60;99.90;;;;;;5031482;28;20052;-53
2023/04/06 05:36:18;;;;;;;17.15;9.95;;;9.60;99.90;;;;;;5031386;28;20087;-55
2023/04/06 05:38:44;;;;;;;21.63;10.90;;;9.60;99.90;;;;;;5031218;28;20174;-53
2023/04/06 05:41:10;;;;;;;23.02;10.77;;;9.60;99.90;;;;;;5031330;28;20038;-53
2023/04/06 05:43:36;;;;;;;23.48;12.05;;;9.60;99.90;;;;;;5031125;28;20028;-50
2023/04/06 05:46:02;;;;;;;22.77;11.98;;;9.60;99.90;;;;;;5031181;28;20029;-51
2023/04/06 05:48:27;;;;;;;23.67;11.65;;;9.60;99.90;;;;;;5031217;28;20029;-52
2023/04/06 05:50:53;;;;;;;31.65;12.55;;;9.70;99.90;;;;;;5029806;28;20021;-50
2023/04/06 05:53:20;;;;;;;28.25;12.02;;;9.70;99.90;;;;;;5031249;28;20053;-50
2023/04/06 05:55:46;;;;;;;25.98;13.05;;;9.70;99.90;;;;;;5030764;28;20029;-49
2023/04/06 05:58:12;;;;;;;26.33;12.20;;;9.70;99.90;;;;;;5030983;28;20029;-53
2023/04/06 06:00:38;;;;;;;26.35;12.05;;;9.70;99.90;;;;;;5030504;28;20084;-50
2023/04/06 06:03:05;;;;;;;26.48;12.10;;;9.80;99.90;;;;;;5030891;28;20040;-50
2023/04/06 06:05:31;;;;;;;24.05;12.07;;;9.80;99.90;;;;;;5031110;28;20049;-50
2023/04/06 06:07:56;;;;;;;30.45;12.48;;;9.80;99.90;;;;;;5029286;28;20502;-50
2023/04/06 06:10:22;;;;;;;27.77;12.55;;;9.80;99.90;;;;;;5030658;28;20021;-49
2023/04/06 06:12:48;;;;;;;25.23;11.07;;;9.80;99.90;;;;;;5030694;28;20029;-49
2023/04/06 06:15:13;;;;;;;24.17;10.77;;;9.90;99.90;;;;;;5029369;28;20071;-52
2023/04/06 06:17:39;;;;;;;28.38;11.13;;;9.90;99.90;;;;;;5030646;28;20061;-49
2023/04/06 06:20:07;;;;;;;21.42;9.98;;;9.90;99.90;;;;;;5030426;28;20034;-51
2023/04/06 06:22:32;;;;;;;21.98;10.13;;;9.90;99.90;;;;;;5030481;28;20039;-52
2023/04/06 06:24:58;;;;;;;27.23;10.52;;;9.90;99.90;;;;;;5029245;28;20100;-49
2023/04/06 06:27:23;;;;;;;23.60;10.27;;;9.90;99.90;;;;;;5030657;28;20029;-51
2023/04/06 06:29:49;;;;;;;18.10;9.10;;;10.00;99.90;;;;;;5030679;28;20025;-49
2023/04/06 06:32:15;;;;;;;19.00;9.50;;;10.00;99.90;;;;;;5030756;28;20060;-52
2023/04/06 06:34:40;;;;;;;21.55;10.25;;;10.00;99.90;;;;;;5030374;28;20030;-52
2023/04/06 06:37:06;;;;;;;19.63;9.70;;;10.10;99.90;;;;;;5030487;28;20447;-51
2023/04/06 06:39:32;;;;;;;18.27;10.80;;;10.10;99.90;;;;;;5030449;28;20075;-48
2023/04/06 06:42:00;;;;;;;24.20;11.50;;;10.10;99.90;;;;;;5030119;28;20029;-53
2023/04/06 06:44:26;;;;;;;21.08;10.88;;;10.10;99.90;;;;;;5030416;28;20184;-48
2023/04/06 06:46:52;;;;;;;27.05;11.60;;;10.10;99.90;;;;;;5030621;28;20460;-48
2023/04/06 06:49:18;;;;;;;23.42;11.65;;;10.10;99.90;;;;;;5030439;28;20028;-48
2023/04/06 06:51:45;;;;;;;20.95;11.30;;;10.10;99.90;;;;;;5030515;28;20041;-49
2023/04/06 06:54:11;;;;;;;23.40;11.63;;;10.10;99.90;;;;;;5030384;28;20013;-48
2023/04/06 06:56:37;;;;;;;19.55;11.25;;;10.10;99.90;;;;;;5030447;28;20032;-48
2023/04/06 06:59:03;;;;;;;23.55;12.35;;;10.20;99.90;;;;;;5030434;28;20028;-53
2023/04/06 07:01:29;;;;;;;17.80;10.80;;;10.20;99.90;;;;;;5030243;28;20042;-52
2023/04/06 07:03:55;;;;;;;27.60;11.05;;;10.20;99.90;;;;;;5030389;28;20021;-50
2023/04/06 07:06:20;;;;;;;18.67;11.30;;;10.20;99.90;;;;;;5030271;28;20021;-50
2023/04/06 07:08:46;;;;;;;27.95;11.43;;;10.20;99.90;;;;;;5030393;28;20060;-53
2023/04/06 07:11:12;;;;;;;21.10;10.73;;;10.20;99.90;;;;;;5030092;28;20044;-50
2023/04/06 07:13:37;;;;;;;25.30;11.38;;;10.30;99.90;;;;;;5030258;28;20025;-49
2023/04/06 07:16:03;;;;;;;26.45;11.40;;;10.30;99.90;;;;;;5030043;28;20018;-48
2023/04/06 07:18:29;;;;;;;21.17;11.00;;;10.30;99.90;;;;;;5030206;28;20403;-50
2023/04/06 07:20:55;;;;;;;23.63;11.65;;;10.30;99.90;;;;;;5030143;28;20025;-49
2023/04/06 07:23:20;;;;;;;22.88;11.30;;;10.40;99.90;;;;;;5021828;28;20021;-48
2023/04/06 07:25:46;;;;;;;21.52;11.55;;;10.50;99.90;;;;;;5030085;28;20025;-52
2023/04/06 07:28:12;;;;;;;17.10;9.40;;;10.60;99.90;;;;;;5029823;28;20092;-49
2023/04/06 07:30:38;;;;;;;16.17;9.35;;;10.70;99.90;;;;;;5029777;28;20075;-48
2023/04/06 07:33:05;;;;;;;17.00;9.57;;;10.70;99.90;;;;;;5030103;28;20029;-52
2023/04/06 07:35:31;;;;;;;14.85;8.30;;;10.70;99.90;;;;;;5029962;28;20108;-53
2023/04/06 07:37:57;;;;;;;14.93;8.73;;;10.70;99.90;;;;;;5030143;28;20477;-49
2023/04/06 07:40:22;;;;;;;16.05;7.80;;;10.80;99.90;;;;;;5032327;28;20110;-53
2023/04/06 07:42:48;;;;;;;13.68;7.38;;;10.80;99.90;;;;;;5033311;28;20462;-52
2023/04/06 07:45:15;;;;;;;11.95;7.22;;;10.90;99.90;;;;;;5033410;28;20021;-51
2023/04/06 07:47:42;;;;;;;10.80;7.65;;;10.90;99.90;;;;;;5033571;28;20033;-51
2023/04/06 07:50:08;;;;;;;11.32;6.97;;;11.00;99.90;;;;;;5033359;28;20052;-49
2023/04/06 07:52:34;;;;;;;10.32;6.72;;;11.00;99.90;;;;;;5033154;28;20088;-52
2023/04/06 07:54:59;;;;;;;10.60;6.97;;;11.00;99.90;;;;;;5032914;28;20108;-48
2023/04/06 07:57:25;;;;;;;11.38;6.85;;;11.00;99.90;;;;;;5033336;28;20021;-50
2023/04/06 07:59:51;;;;;;;11.90;7.60;;;11.00;99.90;;;;;;5033278;28;20114;-48
2023/04/06 08:02:17;;;;;;;10.52;7.10;;;11.00;99.90;;;;;;5023259;28;20175;-49
2023/04/06 08:04:43;;;;;;;10.55;7.28;;;11.00;99.90;;;;;;5027327;28;20022;-49
2023/04/06 08:07:09;;;;;;;10.93;7.20;;;11.00;99.90;;;;;;5028476;28;20022;-49
2023/04/06 08:09:35;;;;;;;10.45;6.88;;;11.10;99.90;;;;;;5019102;28;20021;-50
2023/04/06 08:12:00;;;;;;;11.77;6.78;;;11.10;99.90;;;;;;5030648;28;20068;-46
2023/04/06 08:14:26;;;;;;;10.98;6.78;;;11.20;99.90;;;;;;5029203;28;20061;-48
2023/04/06 08:16:52;;;;;;;9.98;6.50;;;11.30;99.90;;;;;;5030849;28;20018;-46
2023/04/06 08:19:18;;;;;;;10.25;6.15;;;11.40;99.90;;;;;;5032039;28;20104;-47
2023/04/06 08:21:47;;;;;;;11.38;6.32;;;11.30;99.90;;;;;;5032497;28;20036;-48
2023/04/06 08:24:14;;;;;;;8.43;5.17;;;11.40;99.90;;;;;;5032754;28;20029;-47
2023/04/06 08:26:40;;;;;;;9.38;5.22;;;11.50;99.90;;;;;;5031069;28;20017;-47
2023/04/06 08:29:07;;;;;;;10.23;5.50;;;11.60;99.90;;;;;;5032188;28;20117;-48
2023/04/06 08:31:33;;;;;;;7.90;4.70;;;11.80;99.90;;;;;;5030450;28;20028;-46
2023/04/06 08:33:59;;;;;;;6.93;4.60;;;12.00;99.90;;;;;;5021715;28;20030;-46
2023/04/06 08:36:25;;;;;;;7.53;4.60;;;12.10;99.90;;;;;;5018965;28;20030;-47
2023/04/06 08:38:50;;;;;;;6.47;3.95;;;12.30;99.90;;;;;;5032315;28;20045;-50
2023/04/06 08:41:17;;;;;;;5.25;3.00;;;12.60;99.90;;;;;;5031363;28;20084;-46
2023/04/06 08:43:54;;;;;;;9.18;3.10;;;12.80;99.90;;;;;;5032387;28;20034;-46
2023/04/06 08:46:21;;;;;;;7.80;2.58;;;13.00;99.90;;;;;;5028188;28;20025;-46
2023/04/06 08:48:49;;;;;;;5.78;1.80;;;13.90;99.90;;;;;;5031995;28;20038;-47
2023/04/06 08:51:15;;;;;;;7.18;1.83;;;14.50;99.90;;;;;;5030932;28;20017;-46
2023/04/06 08:53:41;;;;;;;6.97;1.80;;;14.40;99.90;;;;;;5027751;28;20034;-47
2023/04/06 08:56:09;;;;;;;5.18;1.73;;;14.10;99.90;;;;;;5026078;28;20025;-47
2023/04/06 08:58:40;;;;;;;7.00;2.08;;;13.90;99.90;;;;;;5032082;28;20057;-46
2023/04/06 09:01:11;;;;;;;6.05;1.73;;;13.60;99.90;;;;;;5031929;28;20500;-46
2023/04/06 09:03:39;;;;;;;6.30;1.83;;;13.20;99.90;;;;;;5031545;28;20037;-47
2023/04/06 09:06:06;;;;;;;6.90;1.90;;;13.00;99.90;;;;;;5044417;28;20025;-46
2023/04/06 09:08:33;;;;;;;4.55;1.55;;;12.90;99.90;;;;;;5038447;28;20025;-45
2023/04/06 09:11:00;;;;;;;4.82;1.75;;;12.80;99.90;;;;;;5031199;28;20507;-47
2023/04/06 09:13:25;;;;;;;7.65;2.17;;;12.90;99.90;;;;;;5031666;28;20044;-46
2023/04/06 09:16:05;;;;;;;6.63;1.73;;;12.90;99.90;;;;;;5031940;28;20440;-45
2023/04/06 09:18:32;;;;;;;6.05;1.90;;;13.00;99.90;;;;;;5031614;28;20511;-46
2023/04/06 09:21:06;;;;;;;6.47;1.67;;;12.90;99.90;;;;;;5031365;28;20538;-47
2023/04/06 09:23:32;;;;;;;5.13;1.80;;;12.80;99.90;;;;;;5031628;28;20507;-45
2023/04/06 09:26:08;;;;;;;6.38;2.03;;;12.50;99.90;;;;;;5031665;28;20547;-46
2023/04/06 09:28:59;;;;;;;6.00;1.85;;;12.30;99.90;;;;;;5031633;28;20211;-47
2023/04/06 09:31:30;;;;;;;6.20;1.88;;;12.20;99.90;;;;;;5023760;28;20085;-47
2023/04/06 09:33:57;;;;;;;10.52;2.42;;;12.10;99.90;;;;;;5030587;28;20117;-46
2023/04/06 09:36:34;;;;;;;6.88;1.92;;;12.00;99.90;;;;;;5030731;28;20100;-48
2023/04/06 09:39:03;;;;;;;3.67;1.63;;;11.90;99.90;;;;;;5030576;28;20554;-46
2023/04/06 09:41:34;;;;;;;8.20;2.22;;;12.00;99.90;;;;;;5017844;28;20551;-46
2023/04/06 09:44:06;;;;;;;4.80;1.83;;;12.20;99.90;;;;;;5027938;28;20385;-47
2023/04/06 09:46:34;;;;;;;7.90;1.85;;;12.40;99.90;;;;;;5026028;28;20034;-49
2023/04/06 09:49:02;;;;;;;10.30;2.00;;;12.40;99.90;;;;;;5024013;28;20049;-52
2023/04/06 09:51:31;;;;;;;8.48;2.05;;;12.40;99.90;;;;;;5022687;28;20480;-50
2023/04/06 09:54:02;;;;;;;9.18;2.10;;;12.50;99.90;;;;;;5026562;28;20030;-48
2023/04/06 09:56:31;;;;;;;7.75;2.17;;;12.90;99.90;;;;;;5019744;28;20054;-38
2023/04/06 09:59:02;;;;;;;7.38;2.20;;;13.50;99.90;;;;;;5027601;28;20021;-57
2023/04/06 10:01:30;;;;;;;7.47;2.10;;;14.10;99.90;;;;;;5030510;28;20041;-51
2023/04/06 10:04:35;;;;;;;6.38;1.83;;;14.80;99.90;;;;;;5030896;28;20388;-48
2023/04/06 10:07:03;;;;;;;10.60;2.42;;;15.40;99.90;;;;;;5021819;28;20485;-49
2023/04/06 10:09:35;;;;;;;6.15;1.80;;;15.80;99.90;;;;;;5030636;28;20083;-49
2023/04/06 10:12:07;;;;;;;7.85;2.15;;;16.00;99.90;;;;;;5030728;28;20544;-46
2023/04/06 10:14:37;;;;;;;6.00;1.70;;;15.90;99.90;;;;;;5027836;28;20039;-59
2023/04/06 10:17:04;;;;;;;7.63;2.03;;;15.70;99.90;;;;;;5030887;28;20049;-47
2023/04/06 10:19:55;;;;;;;6.57;2.08;;;15.10;99.90;;;;;;5036746;28;20029;-50
2023/04/06 10:22:33;;;;;;;11.77;2.60;;;14.60;99.90;;;;;;5047115;28;20122;-47
2023/04/06 10:24:59;;;;;;;9.30;3.00;;;14.00;99.90;;;;;;5050619;28;20025;-51
2023/04/06 10:27:29;;;;;;;10.05;3.45;;;13.40;99.90;;;;;;5050293;28;20051;-52
2023/04/06 10:30:05;;;;;;;12.02;3.15;;;13.00;99.90;;;;;;5050817;28;20025;-51
2023/04/06 10:32:35;;;;;;;9.18;3.17;;;12.60;99.90;;;;;;5050405;28;20071;-48
2023/04/06 10:35:09;;;;;;;10.85;3.38;;;12.50;99.90;;;;;;5050448;28;20400;-47
2023/04/06 10:37:52;;;;;;;12.20;3.38;;;12.70;99.90;;;;;;5050244;28;20018;-50
2023/04/06 10:40:25;;;;;;;8.95;3.00;;;13.20;99.90;;;;;;5050351;28;20450;-49
2023/04/06 10:42:52;;;;;;;9.65;3.40;;;13.40;99.90;;;;;;5042063;28;20048;-49
2023/04/06 10:45:23;;;;;;;10.77;3.10;;;13.70;99.90;;;;;;5030630;28;20338;-51
2023/04/06 10:47:50;;;;;;;7.45;2.88;;;14.30;99.90;;;;;;5030155;28;20035;-49
2023/04/06 10:50:17;;;;;;;10.10;3.65;;;14.70;99.90;;;;;;5025257;28;20029;-51
2023/04/06 10:52:46;;;;;;;13.48;3.35;;;14.80;99.90;;;;;;5028940;28;20396;-54
2023/04/06 10:55:14;;;;;;;10.95;2.90;;;15.20;99.90;;;;;;5030075;28;20022;-52
2023/04/06 10:57:40;;;;;;;13.50;3.65;;;15.70;99.90;;;;;;5027557;28;20511;-48
2023/04/06 11:00:07;;;;;;;5.82;2.50;;;16.50;99.90;;;;;;5028366;28;20018;-49
2023/04/06 11:02:34;;;;;;;10.27;2.65;;;17.40;99.90;;;;;;5029899;28;20052;-50
2023/04/06 11:05:01;;;;;;;8.93;2.78;;;17.90;99.90;;;;;;5031525;28;20029;-46
2023/04/06 11:07:29;;;;;;;6.13;2.47;;;17.50;99.90;;;;;;5040475;28;20479;-47
2023/04/06 11:09:54;;;;;;;10.70;3.03;;;17.20;99.90;;;;;;5029862;28;20071;-50
2023/04/06 11:12:22;;;;;;;7.90;2.58;;;17.00;99.90;;;;;;5030220;28;20072;-48
2023/04/06 11:15:05;;;;;;;11.93;2.25;;;16.70;99.90;;;;;;5032234;28;20029;-48
2023/04/06 11:17:35;;;;;;;6.47;2.28;;;16.90;99.90;;;;;;5035611;28;20040;-47
2023/04/06 11:20:03;;;;;;;6.25;1.95;;;17.10;99.90;;;;;;5033923;28;20111;-50
2023/04/06 11:22:29;;;;;;;7.07;2.00;;;16.90;99.90;;;;;;5032767;28;20041;-48
2023/04/06 11:25:08;;;;;;;6.95;1.90;;;17.30;99.90;;;;;;5036993;28;20029;-48
2023/04/06 11:27:34;;;;;;;7.15;2.03;;;17.40;99.90;;;;;;5041714;28;20025;-47
2023/04/06 11:30:01;;;;;;;4.70;1.73;;;17.00;99.90;;;;;;5029196;28;20026;-51
2023/04/06 11:32:27;;;;;;;4.38;1.60;;;17.10;99.90;;;;;;5033722;28;20036;-49
2023/04/06 11:34:53;;;;;;;5.25;1.65;;;17.00;99.90;;;;;;5033533;28;20030;-47
2023/04/06 11:37:19;;;;;;;5.93;1.90;;;16.90;99.90;;;;;;5033868;28;20029;-51
2023/04/06 11:39:53;;;;;;;9.90;1.77;;;16.80;99.90;;;;;;5033304;28;20520;-52
2023/04/06 11:42:27;;;;;;;4.47;1.80;;;16.70;99.50;;;;;;5033274;28;20066;-47
2023/04/06 11:45:00;;;;;;;5.47;1.60;;;16.90;99.70;;;;;;5033937;28;20033;-49
2023/04/06 11:47:33;;;;;;;5.82;1.77;;;17.30;99.70;;;;;;5033501;28;20032;-47
2023/04/06 11:50:07;;;;;;;5.30;1.70;;;17.40;97.80;;;;;;5033509;28;20385;-49
2023/04/06 11:52:33;;;;;;;5.47;1.60;;;16.90;96.80;;;;;;5033269;28;20499;-48
2023/04/06 11:55:10;;;;;;;5.55;1.50;;;16.30;98.30;;;;;;5033409;28;20025;-47
2023/04/06 11:57:36;;;;;;;5.82;1.70;;;15.70;99.90;;;;;;5033049;28;20468;-50
2023/04/06 12:00:02;;;;;;;7.25;1.70;;;15.40;99.90;;;;;;5033418;28;20044;-46
2023/04/06 12:02:28;;;;;;;8.60;2.22;;;15.30;99.90;;;;;;5031688;28;20400;-49
2023/04/06 12:04:53;;;;;;;5.32;2.28;;;15.30;99.90;;;;;;5023668;28;20022;-47
2023/04/06 12:07:19;;;;;;;7.22;2.30;;;15.40;99.90;;;;;;5028852;28;20060;-48
2023/04/06 12:09:45;;;;;;;7.05;1.63;;;15.90;99.90;;;;;;5032976;28;20222;-46
2023/04/06 12:12:11;;;;;;;5.35;1.80;;;17.40;99.90;;;;;;5029559;28;20044;-58
2023/04/06 12:14:36;;;;;;;4.13;1.60;;;18.70;99.90;;;;;;5029071;28;20532;-52
2023/04/06 12:17:02;;;;;;;7.50;1.73;;;19.40;99.90;;;;;;5032913;28;20036;-45
2023/04/06 12:19:28;;;;;;;5.57;1.67;;;21.10;97.70;;;;;;5036246;28;20095;-52
2023/04/06 12:21:54;;;;;;;3.90;1.45;;;23.60;93.40;;;;;;5027935;28;20350;-48
2023/04/06 12:24:20;;;;;;;4.20;1.85;;;24.50;77.00;;;;;;5031868;28;20063;-46
2023/04/06 12:26:46;;;;;;;4.38;1.60;;;24.70;69.30;;;;;;5019587;28;20112;-49
2023/04/06 12:29:13;;;;;;;6.15;1.63;;;23.60;69.40;;;;;;5031574;28;20139;-49
2023/04/06 12:31:40;;;;;;;8.15;1.88;;;21.60;72.20;;;;;;5032587;28;20037;-48
2023/04/06 12:34:06;;;;;;;6.30;1.83;;;21.00;75.90;;;;;;5032449;28;20455;-49
2023/04/06 12:36:33;;;;;;;4.15;1.40;;;20.90;75.20;;;;;;5032623;28;20084;-49
2023/04/06 12:39:00;;;;;;;5.78;1.58;;;20.50;75.20;;;;;;5032528;28;20045;-48
2023/04/06 12:41:26;;;;;;;4.25;1.30;;;20.80;77.50;;;;;;5032104;28;20056;-48
2023/04/06 12:43:52;;;;;;;3.80;1.35;;;22.00;74.20;;;;;;5032167;28;20037;-50